Time;durP1;ratioP1;P1;durP2;ratioP2;P2;SDS_P1;SDS_P2;PMS_P1;PMS_P2;Temp;Humidity;BMP_temperature;BMP_pressure;BME280_temperature;BME280_humidity;BME280_pressure;Samples;Min_cycle;Max_cycle;Signal;HPM_P1;HPM_P2
2023/12/17 00:01:57;;;;;;;18.38;6.30;;;10.10;99.90;;;;;;4916860;28;20066;-81
2023/12/17 00:04:23;;;;;;;12.80;5.88;;;10.10;99.90;;;;;;5014970;28;20042;-81
2023/12/17 00:06:49;;;;;;;19.17;5.82;;;10.10;99.90;;;;;;4997487;28;20038;-81
2023/12/17 00:09:15;;;;;;;12.45;5.53;;;10.10;99.90;;;;;;4981652;28;20038;-80
2023/12/17 00:11:41;;;;;;;14.13;6.00;;;10.10;99.90;;;;;;4980907;28;20045;-81
2023/12/17 00:14:11;;;;;;;16.35;5.82;;;10.10;99.90;;;;;;4980653;28;20052;-80
2023/12/17 00:16:37;;;;;;;13.27;5.90;;;10.10;99.90;;;;;;4997256;28;20125;-80
2023/12/17 00:19:03;;;;;;;18.33;5.85;;;10.10;99.90;;;;;;5014696;28;20065;-80
2023/12/17 00:21:28;;;;;;;24.00;7.35;;;10.20;99.90;;;;;;4996800;28;20060;-81
2023/12/17 00:23:54;;;;;;;19.40;6.18;;;10.20;99.90;;;;;;5014560;28;20038;-80
2023/12/17 00:26:19;;;;;;;14.05;5.15;;;10.20;99.90;;;;;;5014507;28;20044;-80
2023/12/17 00:28:45;;;;;;;17.23;5.82;;;10.20;99.90;;;;;;4996735;28;20419;-80
2023/12/17 05:01:47;;;;;;;11.10;5.40;;;10.20;99.90;;;;;;5381941;23;20050;-80
2023/12/17 05:04:15;;;;;;;9.73;5.03;;;10.20;99.90;;;;;;4980908;28;20031;-80
2023/12/17 05:06:41;;;;;;;12.05;5.43;;;10.20;99.90;;;;;;4975215;28;20039;-81
2023/12/17 05:09:07;;;;;;;15.98;5.38;;;10.20;99.90;;;;;;4958442;28;20043;-81
2023/12/17 05:11:33;;;;;;;16.50;6.32;;;10.20;99.90;;;;;;4975189;28;20355;-80
2023/12/17 05:13:59;;;;;;;13.15;5.50;;;10.20;99.90;;;;;;4974604;28;20154;-79
2023/12/17 05:16:24;;;;;;;16.42;5.07;;;10.20;99.90;;;;;;4975306;28;20078;-80
2023/12/17 05:18:50;;;;;;;14.88;5.65;;;10.20;99.90;;;;;;4971552;28;20470;-81
2023/12/17 05:21:16;;;;;;;12.18;5.13;;;10.20;99.90;;;;;;4994709;28;20050;-80
2023/12/17 05:23:41;;;;;;;12.50;4.82;;;10.20;99.90;;;;;;4975656;28;20093;-80
2023/12/17 05:26:07;;;;;;;12.95;4.40;;;10.20;99.90;;;;;;4994291;28;20159;-81
2023/12/17 05:28:32;;;;;;;10.20;4.63;;;10.20;99.90;;;;;;4976502;28;20486;-81
2023/12/17 05:30:59;;;;;;;17.42;5.18;;;10.10;99.90;;;;;;4976378;28;20046;-81
2023/12/17 05:33:24;;;;;;;9.90;4.57;;;10.10;99.90;;;;;;4994237;28;20043;-80
2023/12/17 05:35:50;;;;;;;16.13;5.10;;;10.10;99.90;;;;;;4994200;28;20042;-80
2023/12/17 05:38:16;;;;;;;13.07;4.88;;;10.10;99.90;;;;;;4994309;28;20390;-80
2023/12/17 05:40:42;;;;;;;15.23;5.35;;;10.10;99.90;;;;;;4994011;28;20521;-81
2023/12/17 05:43:08;;;;;;;12.65;5.20;;;10.00;99.90;;;;;;4976752;28;20097;-81
2023/12/17 05:45:34;;;;;;;17.10;5.40;;;10.00;99.90;;;;;;4994072;28;20046;-81
2023/12/17 05:47:59;;;;;;;10.63;4.90;;;10.00;99.90;;;;;;4993984;28;20034;-81
2023/12/17 05:50:25;;;;;;;12.98;5.35;;;10.00;99.90;;;;;;4994019;28;20450;-80
2023/12/17 05:52:51;;;;;;;12.50;5.28;;;10.00;99.90;;;;;;4976741;28;20041;-81
2023/12/17 05:55:16;;;;;;;13.85;5.25;;;10.00;99.90;;;;;;4976472;28;20078;-81
2023/12/17 05:57:43;;;;;;;13.25;4.88;;;10.00;99.90;;;;;;4976537;28;20117;-81
2023/12/17 06:00:10;;;;;;;11.25;4.97;;;9.90;99.90;;;;;;4976439;28;20100;-81
2023/12/17 06:02:36;;;;;;;10.73;4.47;;;10.00;99.90;;;;;;4976162;28;20077;-80
2023/12/17 06:05:02;;;;;;;10.18;4.45;;;10.00;99.90;;;;;;4976245;28;20081;-81
2023/12/17 06:07:27;;;;;;;16.27;6.03;;;10.00;99.90;;;;;;4960644;28;20043;-81
2023/12/17 06:09:54;;;;;;;10.15;4.30;;;10.00;99.90;;;;;;4976695;28;20097;-80
2023/12/17 06:12:19;;;;;;;13.52;4.35;;;10.00;99.90;;;;;;4976950;28;20042;-81
2023/12/17 06:14:45;;;;;;;8.90;3.55;;;10.00;99.90;;;;;;4976356;28;20044;-80
2023/12/17 06:17:11;;;;;;;9.10;3.20;;;10.00;99.90;;;;;;4978764;28;20387;-80
2023/12/17 06:19:37;;;;;;;9.48;3.50;;;10.00;99.90;;;;;;4993710;28;20042;-81
2023/12/17 06:22:04;;;;;;;10.30;3.42;;;10.00;99.90;;;;;;4992480;28;20050;-80
2023/12/17 06:24:30;;;;;;;5.22;2.83;;;10.00;99.90;;;;;;4993361;28;20046;-82
2023/12/17 06:26:58;;;;;;;8.57;3.47;;;9.90;99.90;;;;;;4960438;28;20137;-80
2023/12/17 06:29:24;;;;;;;9.60;3.10;;;10.00;99.90;;;;;;4996561;28;20461;-78
2023/12/17 06:31:50;;;;;;;9.20;3.38;;;10.00;99.90;;;;;;4969371;28;20077;-78
2023/12/17 06:34:15;;;;;;;10.85;3.35;;;10.00;99.90;;;;;;4980732;28;20038;-77
2023/12/17 06:36:41;;;;;;;8.88;3.70;;;10.10;99.90;;;;;;4981655;28;20038;-79
2023/12/17 06:39:09;;;;;;;18.20;4.38;;;10.10;99.90;;;;;;4996307;28;20037;-77
2023/12/17 06:41:42;;;;;;;9.50;3.83;;;10.00;99.90;;;;;;4984831;28;20054;-78
2023/12/17 06:44:07;;;;;;;16.13;4.03;;;10.10;99.90;;;;;;4995347;28;20520;-78
2023/12/17 06:46:33;;;;;;;11.30;3.95;;;10.00;99.90;;;;;;4995460;28;20042;-78
2023/12/17 06:48:58;;;;;;;13.73;5.20;;;10.00;99.90;;;;;;4995620;28;20045;-79
2023/12/17 06:51:24;;;;;;;16.27;4.88;;;10.00;99.90;;;;;;4995384;28;20445;-78
2023/12/17 06:53:50;;;;;;;15.63;4.63;;;10.00;99.90;;;;;;4996441;28;20092;-78
2023/12/17 06:56:15;;;;;;;10.93;4.22;;;10.00;99.90;;;;;;4995137;28;20101;-78
2023/12/17 06:58:41;;;;;;;12.18;4.07;;;10.10;99.90;;;;;;4994107;28;20078;-78
2023/12/17 07:01:07;;;;;;;13.02;4.60;;;10.00;99.90;;;;;;4994907;28;20560;-78
2023/12/17 07:03:32;;;;;;;17.80;5.57;;;10.00;99.90;;;;;;4996389;28;20042;-78
2023/12/17 07:05:58;;;;;;;11.45;4.65;;;10.00;99.90;;;;;;4995045;28;20130;-78
2023/12/17 07:08:25;;;;;;;11.50;4.65;;;10.00;99.90;;;;;;4995262;28;20084;-78
2023/12/17 07:10:50;;;;;;;11.35;4.75;;;10.00;99.90;;;;;;4996071;28;20565;-79
2023/12/17 07:13:16;;;;;;;12.88;5.32;;;10.00;99.90;;;;;;4994876;28;20117;-78
2023/12/17 07:15:43;;;;;;;16.83;5.22;;;10.00;99.90;;;;;;4995879;28;20044;-78
2023/12/17 07:18:09;;;;;;;17.92;6.00;;;10.00;99.90;;;;;;4994760;28;20482;-78
2023/12/17 07:20:35;;;;;;;11.70;5.75;;;9.90;99.90;;;;;;4996182;28;20038;-79
2023/12/17 07:23:01;;;;;;;12.25;5.50;;;10.00;99.90;;;;;;4994960;28;20367;-78
2023/12/17 07:25:29;;;;;;;14.07;6.25;;;9.90;99.90;;;;;;4995884;28;20508;-78
2023/12/17 07:27:55;;;;;;;14.63;6.85;;;10.00;99.90;;;;;;4996072;28;20145;-78
2023/12/17 07:30:21;;;;;;;15.82;6.72;;;9.90;99.90;;;;;;4994685;28;20519;-79
2023/12/17 07:32:47;;;;;;;17.38;7.32;;;9.90;99.90;;;;;;4995763;28;20038;-78
2023/12/17 07:35:14;;;;;;;12.60;6.38;;;9.90;99.90;;;;;;4994351;28;20049;-79
2023/12/17 07:37:40;;;;;;;15.88;6.68;;;9.90;99.90;;;;;;4994673;28;20109;-79
2023/12/17 07:40:09;;;;;;;16.27;6.70;;;9.80;99.90;;;;;;4994801;28;20120;-80
2023/12/17 07:42:35;;;;;;;19.88;7.25;;;9.90;99.90;;;;;;4994294;28;20053;-79
2023/12/17 07:45:00;;;;;;;14.27;5.60;;;9.80;99.90;;;;;;4994252;28;20073;-78
2023/12/17 07:47:26;;;;;;;14.57;7.70;;;9.80;99.90;;;;;;4994376;28;20049;-79
2023/12/17 07:49:52;;;;;;;18.52;7.95;;;9.80;99.90;;;;;;4994110;28;20046;-77
2023/12/17 07:52:18;;;;;;;20.65;9.05;;;9.80;99.90;;;;;;4995111;28;20042;-78
2023/12/17 07:54:43;;;;;;;13.90;7.60;;;9.80;99.90;;;;;;4995198;28;20046;-79
2023/12/17 07:57:09;;;;;;;16.15;7.88;;;9.80;99.90;;;;;;4995594;28;20038;-79
2023/12/17 07:59:35;;;;;;;20.70;8.20;;;9.80;99.90;;;;;;4995363;28;20088;-78
2023/12/17 08:02:00;;;;;;;19.58;8.60;;;9.80;99.90;;;;;;4994991;28;20054;-77
2023/12/17 08:04:26;;;;;;;21.90;9.45;;;9.80;99.90;;;;;;4993958;28;20053;-78
2023/12/17 08:06:52;;;;;;;17.60;7.38;;;9.80;99.90;;;;;;4994794;28;20049;-80
2023/12/17 08:09:17;;;;;;;24.63;8.00;;;9.80;99.90;;;;;;4993862;28;20053;-78
2023/12/17 08:11:46;;;;;;;18.88;8.57;;;9.80;99.90;;;;;;4993329;28;20469;-79
2023/12/17 08:14:12;;;;;;;22.40;9.55;;;9.80;99.90;;;;;;4993802;28;20044;-79
2023/12/17 08:16:51;;;;;;;22.30;8.30;;;9.80;99.90;;;;;;4995137;28;20042;-78
2023/12/17 08:19:16;;;;;;;27.13;10.20;;;9.80;99.90;;;;;;4993224;28;20490;-78
2023/12/17 08:21:42;;;;;;;19.70;9.43;;;9.80;99.90;;;;;;4977260;28;20053;-78
2023/12/17 08:24:08;;;;;;;21.00;10.02;;;9.80;99.90;;;;;;4994285;28;20050;-77
2023/12/17 08:26:33;;;;;;;26.83;11.32;;;9.80;99.90;;;;;;4994633;28;20122;-78
2023/12/17 08:28:59;;;;;;;22.52;10.10;;;9.80;99.90;;;;;;4993272;28;20050;-78
2023/12/17 08:31:25;;;;;;;22.17;8.20;;;9.80;99.90;;;;;;4993198;28;20038;-79
2023/12/17 08:33:51;;;;;;;30.58;10.82;;;9.80;99.90;;;;;;4993306;28;20034;-78
2023/12/17 08:36:17;;;;;;;21.67;10.85;;;9.80;99.90;;;;;;4961045;28;20106;-78
2023/12/17 08:38:45;;;;;;;24.80;11.10;;;9.90;99.90;;;;;;4994352;28;20034;-78
2023/12/17 08:41:12;;;;;;;30.10;10.52;;;9.90;99.90;;;;;;4993247;28;20082;-78
2023/12/17 08:43:41;;;;;;;30.80;9.48;;;9.90;99.90;;;;;;4977099;28;20490;-78
2023/12/17 08:46:07;;;;;;;17.55;8.70;;;9.90;99.90;;;;;;4994539;28;20459;-78
2023/12/17 08:48:41;;;;;;;28.17;9.68;;;9.90;99.90;;;;;;4994906;28;20038;-78
2023/12/17 08:51:07;;;;;;;30.20;11.35;;;10.00;99.90;;;;;;4994135;28;20050;-78
2023/12/17 08:53:33;;;;;;;31.42;10.10;;;10.00;99.90;;;;;;4992955;28;20065;-78
2023/12/17 08:55:58;;;;;;;28.83;10.45;;;10.00;99.90;;;;;;4994368;28;20111;-77
2023/12/17 08:58:24;;;;;;;21.55;9.60;;;10.00;99.90;;;;;;4977179;28;20053;-79
2023/12/17 09:00:50;;;;;;;27.13;10.10;;;10.00;99.90;;;;;;4994170;28;20120;-79
2023/12/17 09:03:17;;;;;;;22.88;9.88;;;10.00;99.90;;;;;;4994418;28;20042;-78
2023/12/17 09:05:43;;;;;;;28.80;10.70;;;10.00;99.90;;;;;;4994348;28;20050;-78
2023/12/17 09:08:09;;;;;;;32.00;10.27;;;10.00;99.90;;;;;;4992875;28;20072;-80
2023/12/17 09:10:34;;;;;;;19.05;9.93;;;10.00;99.90;;;;;;4992622;28;20086;-79
2023/12/17 09:13:00;;;;;;;29.92;10.80;;;10.00;99.90;;;;;;4993947;28;20039;-78
2023/12/17 09:15:25;;;;;;;21.45;8.93;;;10.00;99.90;;;;;;4992983;28;20046;-79
2023/12/17 09:17:52;;;;;;;22.70;9.65;;;10.00;99.90;;;;;;4993524;28;20088;-79
2023/12/17 09:20:17;;;;;;;21.55;9.77;;;10.00;99.90;;;;;;4993958;28;20053;-79
2023/12/17 09:22:43;;;;;;;20.15;8.80;;;10.00;99.90;;;;;;4992585;28;20038;-80
2023/12/17 09:25:09;;;;;;;27.40;10.52;;;10.00;99.90;;;;;;4992964;28;20077;-79
2023/12/17 09:27:35;;;;;;;24.52;9.68;;;10.00;99.90;;;;;;4992711;28;20078;-78
2023/12/17 09:30:02;;;;;;;25.75;9.63;;;10.00;99.90;;;;;;4994078;28;20092;-79
2023/12/17 09:32:27;;;;;;;23.40;10.30;;;10.00;99.90;;;;;;4993668;28;20039;-79
2023/12/17 09:34:53;;;;;;;22.58;10.80;;;10.00;99.90;;;;;;4994068;28;20035;-79
2023/12/17 09:37:20;;;;;;;30.25;12.40;;;10.00;99.90;;;;;;4992844;28;20084;-78
2023/12/17 09:39:45;;;;;;;26.35;10.27;;;9.90;99.90;;;;;;4992456;28;20042;-78
2023/12/17 09:42:11;;;;;;;30.42;13.13;;;10.00;99.90;;;;;;4976513;28;20049;-80
2023/12/17 09:44:39;;;;;;;34.47;14.10;;;10.00;99.90;;;;;;4992566;28;20156;-79
2023/12/17 09:47:04;;;;;;;28.42;12.07;;;10.00;99.90;;;;;;4993613;28;20544;-78
2023/12/17 09:49:30;;;;;;;31.23;13.60;;;10.00;99.90;;;;;;4992363;28;20046;-78
2023/12/17 09:52:08;;;;;;;24.27;10.57;;;10.00;99.90;;;;;;4992189;28;20046;-79
2023/12/17 09:54:34;;;;;;;31.55;15.15;;;10.00;99.90;;;;;;4993957;28;20056;-79
2023/12/17 09:57:03;;;;;;;32.22;13.52;;;10.00;99.90;;;;;;4993551;28;20046;-78
2023/12/17 09:59:29;;;;;;;33.33;15.32;;;10.00;99.90;;;;;;4993998;28;20061;-77
2023/12/17 10:01:55;;;;;;;35.40;14.60;;;10.00;99.90;;;;;;4993612;28;20050;-77
2023/12/17 10:04:25;;;;;;;37.83;13.68;;;10.00;99.90;;;;;;4995932;28;20042;-78
2023/12/17 10:06:53;;;;;;;38.20;16.05;;;10.00;99.90;;;;;;4995850;28;20107;-78
2023/12/17 10:09:19;;;;;;;36.78;16.00;;;10.10;99.90;;;;;;4997059;28;20041;-78
2023/12/17 10:11:45;;;;;;;39.53;16.60;;;10.00;99.90;;;;;;4997205;28;20038;-77
2023/12/17 10:14:21;;;;;;;42.50;17.13;;;10.00;99.90;;;;;;4997385;28;20107;-79
2023/12/17 10:16:48;;;;;;;39.38;17.08;;;10.10;99.90;;;;;;4996073;28;20382;-76
2023/12/17 10:19:14;;;;;;;41.10;17.83;;;10.10;99.90;;;;;;4995954;28;20061;-77
2023/12/17 10:21:40;;;;;;;37.17;15.10;;;10.10;99.90;;;;;;4995792;28;20398;-78
2023/12/17 10:24:18;;;;;;;39.90;18.05;;;10.10;99.90;;;;;;5001178;28;20046;-75
2023/12/17 10:27:42;;;;;;;;;;;;;;;;;;;;;
2023/12/17 10:30:37;;;;;;;40.33;18.40;;;10.10;99.90;;;;;;4996168;23;20101;-77
2023/12/17 10:33:31;;;;;;;;;;;;;;;;;;;;;
2023/12/17 10:35:57;;;;;;;40.38;17.63;;;10.10;99.90;;;;;;4998446;28;20041;-78
2023/12/17 10:38:25;;;;;;;32.95;15.82;;;10.10;99.90;;;;;;4982624;28;20038;-77
2023/12/17 10:41:04;;;;;;;37.75;17.42;;;10.10;99.90;;;;;;4999291;28;20049;-79
2023/12/17 10:43:32;;;;;;;41.75;17.77;;;10.10;99.90;;;;;;4998329;28;20489;-75
2023/12/17 10:45:59;;;;;;;31.58;15.02;;;10.10;99.90;;;;;;5016398;28;20092;-78
2023/12/17 10:48:26;;;;;;;31.10;15.77;;;10.10;99.90;;;;;;4982681;28;20077;-77
2023/12/17 10:50:54;;;;;;;33.92;15.10;;;10.10;99.90;;;;;;4982242;28;20046;-75
2023/12/17 10:53:20;;;;;;;35.67;15.90;;;10.10;99.90;;;;;;4998637;28;20046;-78
2023/12/17 10:55:46;;;;;;;31.85;15.25;;;10.10;99.90;;;;;;4982260;28;20045;-77
2023/12/17 10:58:17;;;;;;;31.77;15.10;;;10.20;99.90;;;;;;4982448;28;20070;-77
2023/12/17 11:11:24;;;;;;;;;;;;;;;;;;;;;
2023/12/17 11:18:04;;;;;;;;;;;;;;;;;;;;;
2023/12/17 11:25:42;;;;;;;;;;;;;;;;;;;;;
2023/12/17 11:28:52;;;;;;;22.08;11.93;;;10.10;99.90;;;;;;4808437;29;20054;-77
2023/12/17 11:31:35;;;;;;;23.80;11.35;;;10.10;99.90;;;;;;4826550;29;20691;-77
2023/12/17 11:34:50;;;;;;;20.13;10.95;;;10.00;99.90;;;;;;4826077;29;20137;-77
2023/12/17 11:40:49;;;;;;;24.23;12.00;;;9.90;99.90;;;;;;4762060;30;20576;-77
2023/12/17 11:43:54;;;;;;;23.63;10.80;;;9.90;99.90;;;;;;4791617;29;20154;-76
2023/12/17 11:58:05;;;;;;;;;;;;;;;;;;;;;
2023/12/17 12:01:26;;;;;;;23.63;11.27;;;9.90;99.90;;;;;;5024522;23;20050;-77
2023/12/17 12:24:08;;;;;;;27.38;12.65;;;9.90;99.90;;;;;;4664611;30;20185;-78
2023/12/17 12:31:04;;;;;;;;;;;;;;;;;;;;;
2023/12/17 12:33:31;;;;;;;29.23;13.88;;;9.90;99.90;;;;;;4734161;30;20068;-75
2023/12/17 12:39:48;;;;;;;35.47;15.30;;;9.80;99.90;;;;;;4726120;29;20117;-78
2023/12/17 12:42:52;;;;;;;29.17;13.35;;;9.90;99.90;;;;;;4959018;23;20120;-78
2023/12/17 12:46:21;;;;;;;35.40;15.52;;;9.90;99.90;;;;;;4974749;28;20050;-78
2023/12/17 12:49:01;;;;;;;32.22;15.40;;;9.80;99.90;;;;;;4899382;28;20047;-78
2023/12/17 12:51:27;;;;;;;34.80;16.42;;;9.80;99.90;;;;;;4997606;23;20047;-78
2023/12/17 12:53:52;;;;;;;30.33;14.68;;;9.80;99.90;;;;;;4958146;28;20078;-77
2023/12/17 12:56:19;;;;;;;37.22;16.27;;;9.90;99.90;;;;;;4957878;28;20061;-76
2023/12/17 12:58:45;;;;;;;38.28;16.90;;;9.90;99.90;;;;;;4957688;28;20042;-76
2023/12/17 13:01:10;;;;;;;37.35;15.68;;;10.00;99.90;;;;;;4957192;28;20560;-78
2023/12/17 13:03:36;;;;;;;43.53;16.80;;;10.10;99.90;;;;;;4974976;28;20402;-78
2023/12/17 13:06:04;;;;;;;37.05;17.58;;;10.30;99.90;;;;;;4974528;28;20486;-77
2023/12/17 13:08:34;;;;;;;34.78;15.15;;;10.20;99.90;;;;;;4941513;28;20050;-76
2023/12/17 13:11:00;;;;;;;33.28;16.65;;;10.20;99.90;;;;;;4957162;28;20074;-76
2023/12/17 13:13:36;;;;;;;30.00;13.73;;;10.20;99.90;;;;;;4941804;28;20177;-78
2023/12/17 13:16:07;;;;;;;32.72;15.00;;;10.30;99.90;;;;;;4941196;28;20043;-78
2023/12/17 13:18:33;;;;;;;35.45;15.95;;;10.50;99.90;;;;;;4957576;28;20039;-77
2023/12/17 13:20:59;;;;;;;35.80;17.42;;;10.40;99.90;;;;;;4957371;28;20100;-77
2023/12/17 13:23:24;;;;;;;34.47;16.35;;;10.40;99.90;;;;;;4958385;28;20125;-77
2023/12/17 13:25:50;;;;;;;29.88;15.13;;;10.40;99.90;;;;;;4974726;28;20105;-78
2023/12/17 13:28:16;;;;;;;32.63;16.55;;;10.60;99.90;;;;;;4957367;28;20125;-79
2023/12/17 13:30:45;;;;;;;31.90;14.70;;;10.70;99.90;;;;;;4941488;28;20054;-79
2023/12/17 13:33:11;;;;;;;29.33;14.15;;;10.80;99.90;;;;;;4957524;28;20487;-79
2023/12/17 13:46:33;;;;;;;30.73;12.77;;;11.00;99.90;;;;;;4809470;29;20403;-79
2023/12/17 13:57:30;;;;;;;;;;;;;;;;;;;;;
2023/12/17 14:02:44;;;;;;;27.92;13.07;;;10.70;99.90;;;;;;5101545;22;20461;-77
2023/12/17 14:05:11;;;;;;;27.88;13.10;;;10.90;99.90;;;;;;4997398;28;20087;-77
2023/12/17 14:07:37;;;;;;;28.65;11.52;;;11.00;99.90;;;;;;4997644;28;20042;-80
2023/12/17 14:10:03;;;;;;;28.92;12.18;;;11.00;99.90;;;;;;4996459;28;20051;-78
2023/12/17 14:15:32;;;;;;;24.38;11.95;;;10.90;99.90;;;;;;4995524;28;20054;-79
2023/12/17 14:18:39;;;;;;;24.45;11.77;;;10.70;99.90;;;;;;4979407;28;20553;-78
2023/12/17 14:21:28;;;;;;;23.75;11.00;;;10.60;99.90;;;;;;4979703;28;20046;-77
2023/12/17 14:27:38;;;;;;;23.13;11.32;;;10.20;99.90;;;;;;4961889;28;20043;-78
2023/12/17 14:33:07;;;;;;;23.48;10.45;;;10.00;99.90;;;;;;4978969;26;20042;-78
2023/12/17 14:35:33;;;;;;;22.52;10.50;;;10.00;99.90;;;;;;4997236;28;20409;-78
2023/12/17 14:37:59;;;;;;;24.40;10.20;;;9.90;99.90;;;;;;4979452;28;20038;-78
2023/12/17 14:40:25;;;;;;;23.30;9.48;;;9.80;99.90;;;;;;4979492;28;20069;-77
2023/12/17 14:42:50;;;;;;;25.45;9.90;;;9.80;99.90;;;;;;4979345;28;20046;-78
2023/12/17 14:45:16;;;;;;;26.95;9.60;;;9.70;99.90;;;;;;4979155;28;20049;-77
2023/12/17 14:47:42;;;;;;;25.17;10.43;;;9.70;99.90;;;;;;4963454;28;20470;-79
2023/12/17 14:50:08;;;;;;;23.60;9.77;;;9.70;99.90;;;;;;4996008;28;20125;-77
2023/12/17 14:53:33;;;;;;;25.42;9.40;;;9.70;99.90;;;;;;5001110;23;20046;-78
2023/12/17 14:57:09;;;;;;;23.10;8.77;;;9.70;99.90;;;;;;4899570;29;20051;-78
2023/12/17 15:06:25;;;;;;;22.17;8.15;;;9.40;99.90;;;;;;4861744;29;20053;-78
2023/12/17 15:08:59;;;;;;;21.05;6.78;;;9.50;99.90;;;;;;4861477;29;20089;-77
2023/12/17 15:12:22;;;;;;;25.02;7.75;;;9.50;99.90;;;;;;4932567;29;20089;-78
2023/12/17 15:30:18;;;;;;;20.23;6.82;;;9.40;99.90;;;;;;4936513;29;20114;-78
2023/12/17 15:45:20;;;;;;;11.95;4.32;;;9.30;99.90;;;;;;4755693;30;20055;-78
2023/12/17 15:47:56;;;;;;;18.17;4.90;;;9.30;99.90;;;;;;4787759;30;20063;-78
2023/12/17 15:51:02;;;;;;;16.85;5.28;;;9.30;99.90;;;;;;4755521;30;20051;-77
2023/12/17 15:54:28;;;;;;;;;;;;;;;;;;;;;
2023/12/17 15:57:32;;;;;;;;;;;;;;;;;;;;;
2023/12/17 16:00:20;;;;;;;16.13;4.53;;;9.20;99.90;;;;;;4855738;29;20612;-78
2023/12/17 16:03:07;;;;;;;20.55;4.55;;;9.20;99.90;;;;;;4900100;29;20058;-78
2023/12/17 16:05:33;;;;;;;17.02;4.78;;;9.20;99.90;;;;;;4900207;29;20043;-78
2023/12/17 16:08:00;;;;;;;22.27;5.28;;;9.20;99.90;;;;;;4888904;29;20047;-78
2023/12/17 16:13:14;;;;;;;;;;;;;;;;;;;;;
2023/12/17 16:16:19;;;;;;;17.30;4.80;;;9.00;99.90;;;;;;4994666;28;20056;-78
2023/12/17 16:19:49;;;;;;;22.30;5.15;;;9.00;99.90;;;;;;4903964;29;20075;-78
2023/12/17 16:22:42;;;;;;;;;;;;;;;;;;;;;
2023/12/17 16:26:28;;;;;;;;;;;;;;;;;;;;;
2023/12/17 16:29:37;;;;;;;14.00;4.93;;;9.00;99.90;;;;;;4840713;29;20052;-78
2023/12/17 16:32:18;;;;;;;18.30;4.88;;;8.90;99.90;;;;;;4868409;29;20119;-78
2023/12/17 16:39:30;;;;;;;;;;;;;;;;;;;;;
2023/12/17 16:43:10;;;;;;;;;;;;;;;;;;;;;
2023/12/17 16:46:06;;;;;;;16.73;4.70;;;8.80;99.90;;;;;;4933986;29;20051;-78
2023/12/17 16:50:02;;;;;;;;;;;;;;;;;;;;;
2023/12/17 16:53:22;;;;;;;;;;;;;;;;;;;;;
2023/12/17 16:56:05;;;;;;;14.45;5.05;;;8.60;99.90;;;;;;4933952;29;20054;-78
2023/12/17 16:59:46;;;;;;;;;;;;;;;;;;;;;
2023/12/17 17:07:09;;;;;;;;;;;;;;;;;;;;;
2023/12/17 17:17:21;;;;;;;17.70;5.80;;;8.30;99.90;;;;;;4990515;28;20049;-78
2023/12/17 17:23:47;;;;;;;;;;;;;;;;;;;;;
2023/12/17 17:27:08;;;;;;;;;;;;;;;;;;;;;
2023/12/17 17:43:57;;;;;;;;;;;;;;;;;;;;;
2023/12/17 17:53:23;;;;;;;16.67;5.28;;;8.00;99.90;;;;;;5100621;22;20053;-78
2023/12/17 17:56:17;;;;;;;15.55;6.20;;;8.00;99.90;;;;;;4995122;28;20456;-78
2023/12/17 17:59:14;;;;;;;13.45;6.03;;;8.00;99.90;;;;;;5012970;28;20076;-77
2023/12/17 18:02:17;;;;;;;21.03;5.90;;;7.90;99.90;;;;;;4988632;28;20141;-79
2023/12/17 18:05:24;;;;;;;;;;;;;;;;;;;;;
2023/12/17 18:08:05;;;;;;;15.50;5.65;;;7.90;99.90;;;;;;4995235;28;20123;-77
2023/12/17 18:10:34;;;;;;;22.20;6.60;;;7.90;99.90;;;;;;4995542;28;20045;-80
2023/12/17 18:13:27;;;;;;;16.40;6.38;;;7.90;99.90;;;;;;5013362;28;20061;-77
2023/12/17 18:15:57;;;;;;;17.63;6.25;;;7.80;99.90;;;;;;4987536;28;20516;-78
2023/12/17 18:18:31;;;;;;;21.10;6.22;;;7.80;99.90;;;;;;5013099;28;20078;-78
2023/12/17 18:21:31;;;;;;;23.52;6.70;;;7.80;99.90;;;;;;5013572;28;20045;-77
2023/12/17 18:24:40;;;;;;;14.60;5.80;;;7.80;99.90;;;;;;4996687;28;20061;-78
2023/12/17 18:28:12;;;;;;;;;;;;;;;;;;;;;
2023/12/17 18:33:16;;;;;;;20.27;7.28;;;7.80;99.90;;;;;;4688975;26;20057;-78
2023/12/17 18:35:45;;;;;;;20.73;7.53;;;7.70;99.90;;;;;;4960436;28;20043;-78
2023/12/17 18:38:10;;;;;;;17.92;7.00;;;7.70;99.90;;;;;;4960003;28;20043;-78
2023/12/17 18:40:59;;;;;;;20.73;7.20;;;7.70;99.90;;;;;;4960039;28;20050;-78
2023/12/17 18:44:00;;;;;;;25.70;7.30;;;7.60;99.90;;;;;;4959737;28;20129;-78
2023/12/17 18:46:50;;;;;;;20.02;7.70;;;7.60;99.90;;;;;;4977212;28;20085;-77
2023/12/17 18:49:35;;;;;;;21.67;7.65;;;7.60;99.90;;;;;;4959165;28;20058;-78
2023/12/17 18:52:00;;;;;;;24.67;8.32;;;7.50;99.90;;;;;;4976637;28;20053;-78
2023/12/17 18:54:26;;;;;;;17.35;7.30;;;7.50;99.90;;;;;;4977455;28;20077;-78
2023/12/17 18:56:51;;;;;;;31.25;11.18;;;7.50;99.90;;;;;;4960050;28;20042;-77
2023/12/17 18:59:17;;;;;;;29.05;8.50;;;7.60;99.90;;;;;;4959717;28;20501;-77
2023/12/17 19:02:29;;;;;;;;;;;;;;;;;;;;;
2023/12/17 19:09:33;;;;;;;26.05;8.80;;;7.70;99.90;;;;;;4928161;28;20054;-77
2023/12/17 19:12:18;;;;;;;21.30;7.65;;;7.80;99.90;;;;;;4995615;28;20071;-78
2023/12/17 19:15:33;;;;;;;22.70;7.88;;;7.90;99.90;;;;;;4994842;28;20054;-77
2023/12/17 19:19:25;;;;;;;;;;;;;;;;;;;;;
2023/12/17 19:22:19;;;;;;;17.83;6.82;;;8.00;99.90;;;;;;4998676;23;20049;-77
2023/12/17 19:24:58;;;;;;;20.73;8.27;;;8.10;99.90;;;;;;5015215;28;20128;-79
2023/12/17 19:27:23;;;;;;;17.13;6.50;;;8.20;99.90;;;;;;4981673;28;20375;-77
2023/12/17 19:29:49;;;;;;;21.35;7.13;;;8.30;99.90;;;;;;4998016;28;20053;-78
2023/12/17 19:32:15;;;;;;;21.05;7.38;;;8.20;99.90;;;;;;5015281;28;20068;-78
2023/12/17 19:34:41;;;;;;;19.52;7.50;;;8.20;99.90;;;;;;4998029;28;20390;-79
2023/12/17 19:37:07;;;;;;;22.73;8.23;;;8.20;99.90;;;;;;4998083;28;20044;-79
2023/12/17 19:39:33;;;;;;;19.73;8.15;;;8.30;99.90;;;;;;4997737;28;20038;-77
2023/12/17 19:42:00;;;;;;;19.58;6.88;;;8.30;99.90;;;;;;4997420;28;20069;-78
2023/12/17 19:44:26;;;;;;;16.95;6.57;;;8.30;99.90;;;;;;4981697;28;20049;-77
2023/12/17 19:46:52;;;;;;;28.27;8.18;;;8.40;99.90;;;;;;4981357;28;20049;-77
2023/12/17 19:49:17;;;;;;;21.23;7.28;;;8.40;99.90;;;;;;4997605;28;20045;-77
2023/12/17 19:51:43;;;;;;;18.08;7.32;;;8.40;99.90;;;;;;5015130;28;20478;-79
2023/12/17 19:54:09;;;;;;;21.77;7.50;;;8.40;99.90;;;;;;4997684;28;20042;-79
2023/12/17 19:56:34;;;;;;;24.27;7.80;;;8.40;99.90;;;;;;4997736;28;20037;-80
2023/12/17 19:59:00;;;;;;;20.83;7.47;;;8.40;99.90;;;;;;5015102;28;20520;-77
2023/12/17 20:01:25;;;;;;;16.02;6.90;;;8.40;99.90;;;;;;5014678;28;20038;-78
2023/12/17 20:03:52;;;;;;;21.83;8.20;;;8.40;99.90;;;;;;4997471;28;20038;-77
2023/12/17 20:06:20;;;;;;;21.15;7.57;;;8.50;99.90;;;;;;4997330;28;20053;-78
2023/12/17 20:08:50;;;;;;;22.95;7.57;;;8.40;99.90;;;;;;5014962;28;20433;-78
2023/12/17 20:11:16;;;;;;;19.65;7.43;;;8.40;99.90;;;;;;4997113;28;20096;-78
2023/12/17 20:13:42;;;;;;;18.02;7.28;;;8.40;99.90;;;;;;5014951;28;20363;-78
2023/12/17 20:16:08;;;;;;;22.15;8.50;;;8.50;99.90;;;;;;4997348;28;20041;-77
2023/12/17 20:18:33;;;;;;;21.17;8.70;;;8.40;99.90;;;;;;4997076;28;20049;-78
2023/12/17 20:21:00;;;;;;;18.95;7.00;;;8.50;99.90;;;;;;4996785;28;20045;-77
2023/12/17 20:23:27;;;;;;;21.48;7.65;;;8.50;99.90;;;;;;5014842;28;20076;-78
2023/12/17 20:25:53;;;;;;;21.52;7.00;;;8.50;99.90;;;;;;5014502;28;20505;-78
2023/12/17 20:28:18;;;;;;;22.50;7.88;;;8.40;99.90;;;;;;5014458;28;20034;-78
2023/12/17 20:30:44;;;;;;;24.65;8.30;;;8.50;99.90;;;;;;4996596;28;20042;-78
2023/12/17 20:33:12;;;;;;;27.42;7.47;;;8.40;99.90;;;;;;4997273;28;20096;-78
2023/12/17 20:35:42;;;;;;;21.30;8.07;;;8.40;99.90;;;;;;4996733;28;20497;-78
2023/12/17 20:38:10;;;;;;;22.65;8.63;;;8.50;99.90;;;;;;4996737;28;20096;-78
2023/12/17 20:40:40;;;;;;;23.73;7.97;;;8.50;99.90;;;;;;4996652;28;20046;-78
2023/12/17 20:43:06;;;;;;;20.13;7.97;;;8.40;99.90;;;;;;5014570;28;20050;-78
2023/12/17 20:45:31;;;;;;;20.00;7.55;;;8.40;99.90;;;;;;5015030;28;20045;-77
2023/12/17 20:47:57;;;;;;;27.10;8.70;;;8.40;99.90;;;;;;4996094;28;20037;-78
2023/12/17 20:50:22;;;;;;;24.45;8.57;;;8.40;99.90;;;;;;4996446;28;20099;-77
2023/12/17 20:52:48;;;;;;;21.40;8.45;;;8.40;99.90;;;;;;5014347;28;20040;-78
2023/12/17 20:55:14;;;;;;;20.48;7.70;;;8.40;99.90;;;;;;5014266;28;20034;-77
2023/12/17 20:57:39;;;;;;;26.30;8.75;;;8.40;99.90;;;;;;4996497;28;20042;-79
2023/12/17 21:00:06;;;;;;;33.22;9.43;;;8.40;99.90;;;;;;4996348;28;20033;-77
2023/12/17 21:02:32;;;;;;;21.25;7.82;;;8.30;99.90;;;;;;4996606;28;20401;-77
2023/12/17 21:05:00;;;;;;;22.10;7.95;;;8.40;99.90;;;;;;4993561;28;20041;-79
2023/12/17 21:07:26;;;;;;;23.60;7.57;;;8.40;99.90;;;;;;4999824;28;20048;-78
2023/12/17 21:09:52;;;;;;;18.33;8.23;;;8.40;99.90;;;;;;5016255;28;20045;-77
2023/12/17 21:12:18;;;;;;;19.27;8.02;;;8.30;99.90;;;;;;5015968;28;20146;-77
2023/12/17 21:14:44;;;;;;;21.13;8.57;;;8.40;99.90;;;;;;4999704;28;20041;-78
2023/12/17 21:17:10;;;;;;;26.25;8.55;;;8.30;99.90;;;;;;5033677;28;20103;-78